sensor_id;sensor_type;location;lat;lon;timestamp;temperature;humidity
20380;DHT22;10349;48.666;8.948;2024-02-16T00:00:17;7.10;99.90
20380;DHT22;10349;48.666;8.948;2024-02-16T00:02:43;7.10;99.90
20380;DHT22;10349;48.666;8.948;2024-02-16T00:05:10;7.10;99.90
20380;DHT22;10349;48.666;8.948;2024-02-16T00:07:39;7.10;99.90
20380;DHT22;10349;48.666;8.948;2024-02-16T00:10:06;7.10;99.90
20380;DHT22;10349;48.666;8.948;2024-02-16T00:12:33;7.10;99.90
20380;DHT22;10349;48.666;8.948;2024-02-16T00:14:59;7.10;99.90
20380;DHT22;10349;48.666;8.948;2024-02-16T00:17:25;7.20;99.90
20380;DHT22;10349;48.666;8.948;2024-02-16T00:19:58;7.20;99.90
20380;DHT22;10349;48.666;8.948;2024-02-16T00:22:24;7.10;99.90
20380;DHT22;10349;48.666;8.948;2024-02-16T00:24:49;7.10;99.90
20380;DHT22;10349;48.666;8.948;2024-02-16T00:27:16;7.20;99.90
20380;DHT22;10349;48.666;8.948;2024-02-16T00:29:42;7.20;99.90
20380;DHT22;10349;48.666;8.948;2024-02-16T00:32:08;7.20;99.90
20380;DHT22;10349;48.666;8.948;2024-02-16T00:34:36;7.20;99.90
20380;DHT22;10349;48.666;8.948;2024-02-16T00:37:02;7.30;99.90
20380;DHT22;10349;48.666;8.948;2024-02-16T00:39:29;7.30;99.90
20380;DHT22;10349;48.666;8.948;2024-02-16T00:41:55;7.30;99.90
20380;DHT22;10349;48.666;8.948;2024-02-16T00:44:20;7.30;99.90
20380;DHT22;10349;48.666;8.948;2024-02-16T00:46:46;7.30;99.90
20380;DHT22;10349;48.666;8.948;2024-02-16T00:49:12;7.30;99.90
20380;DHT22;10349;48.666;8.948;2024-02-16T00:51:38;7.30;99.90
20380;DHT22;10349;48.666;8.948;2024-02-16T00:54:04;7.30;99.90
20380;DHT22;10349;48.666;8.948;2024-02-16T00:56:30;7.30;99.90
20380;DHT22;10349;48.666;8.948;2024-02-16T00:58:56;7.40;99.90
20380;DHT22;10349;48.666;8.948;2024-02-16T01:01:22;7.50;99.90
20380;DHT22;10349;48.666;8.948;2024-02-16T01:03:48;7.60;99.90
20380;DHT22;10349;48.666;8.948;2024-02-16T01:06:14;7.70;99.90
20380;DHT22;10349;48.666;8.948;2024-02-16T01:08:40;7.80;99.90
20380;DHT22;10349;48.666;8.948;2024-02-16T01:11:06;7.80;99.90
20380;DHT22;10349;48.666;8.948;2024-02-16T01:13:33;7.80;99.90
20380;DHT22;10349;48.666;8.948;2024-02-16T01:15:59;7.90;99.90
20380;DHT22;10349;48.666;8.948;2024-02-16T01:18:25;7.90;99.90
20380;DHT22;10349;48.666;8.948;2024-02-16T01:20:52;8.00;99.90
20380;DHT22;10349;48.666;8.948;2024-02-16T01:23:17;8.10;99.90
20380;DHT22;10349;48.666;8.948;2024-02-16T01:25:43;8.30;99.90
20380;DHT22;10349;48.666;8.948;2024-02-16T01:28:08;8.40;99.90
20380;DHT22;10349;48.666;8.948;2024-02-16T01:30:34;8.40;99.90
20380;DHT22;10349;48.666;8.948;2024-02-16T01:33:00;8.50;99.90
20380;DHT22;10349;48.666;8.948;2024-02-16T01:35:25;8.50;99.90
20380;DHT22;10349;48.666;8.948;2024-02-16T01:37:51;8.50;99.90
20380;DHT22;10349;48.666;8.948;2024-02-16T01:40:16;8.50;99.90
20380;DHT22;10349;48.666;8.948;2024-02-16T01:42:44;8.50;99.90
20380;DHT22;10349;48.666;8.948;2024-02-16T01:45:10;8.50;99.90
20380;DHT22;10349;48.666;8.948;2024-02-16T01:47:39;8.50;99.90
20380;DHT22;10349;48.666;8.948;2024-02-16T01:50:07;8.50;99.90
20380;DHT22;10349;48.666;8.948;2024-02-16T01:52:34;8.50;99.90
20380;DHT22;10349;48.666;8.948;2024-02-16T01:55:03;8.50;99.90
20380;DHT22;10349;48.666;8.948;2024-02-16T01:57:30;8.40;99.90
20380;DHT22;10349;48.666;8.948;2024-02-16T01:59:56;8.40;99.90
20380;DHT22;10349;48.666;8.948;2024-02-16T02:02:22;8.40;99.90
20380;DHT22;10349;48.666;8.948;2024-02-16T02:04:48;8.40;99.90
20380;DHT22;10349;48.666;8.948;2024-02-16T02:07:15;8.40;99.90
20380;DHT22;10349;48.666;8.948;2024-02-16T02:09:41;8.30;99.90
20380;DHT22;10349;48.666;8.948;2024-02-16T02:12:08;8.30;99.90
20380;DHT22;10349;48.666;8.948;2024-02-16T02:14:34;8.30;99.90
20380;DHT22;10349;48.666;8.948;2024-02-16T02:16:59;8.30;99.90
20380;DHT22;10349;48.666;8.948;2024-02-16T02:19:26;8.30;99.90
20380;DHT22;10349;48.666;8.948;2024-02-16T02:21:51;8.30;99.90
20380;DHT22;10349;48.666;8.948;2024-02-16T02:24:17;8.30;99.90
20380;DHT22;10349;48.666;8.948;2024-02-16T02:26:43;8.30;99.90
20380;DHT22;10349;48.666;8.948;2024-02-16T02:29:09;8.30;99.90
20380;DHT22;10349;48.666;8.948;2024-02-16T02:31:34;8.30;99.90
20380;DHT22;10349;48.666;8.948;2024-02-16T02:34:00;8.30;99.90
20380;DHT22;10349;48.666;8.948;2024-02-16T02:36:26;8.30;99.90
20380;DHT22;10349;48.666;8.948;2024-02-16T02:38:52;8.40;99.90
20380;DHT22;10349;48.666;8.948;2024-02-16T02:41:17;8.40;99.90
20380;DHT22;10349;48.666;8.948;2024-02-16T02:43:45;8.40;99.90
20380;DHT22;10349;48.666;8.948;2024-02-16T02:46:15;8.40;99.90
20380;DHT22;10349;48.666;8.948;2024-02-16T02:48:43;8.40;99.90
20380;DHT22;10349;48.666;8.948;2024-02-16T02:51:09;8.40;99.90
20380;DHT22;10349;48.666;8.948;2024-02-16T02:53:35;8.40;99.90
20380;DHT22;10349;48.666;8.948;2024-02-16T02:56:02;8.40;99.90
20380;DHT22;10349;48.666;8.948;2024-02-16T02:58:28;8.30;99.90
20380;DHT22;10349;48.666;8.948;2024-02-16T03:00:53;8.30;99.90
20380;DHT22;10349;48.666;8.948;2024-02-16T03:03:20;8.20;99.90
20380;DHT22;10349;48.666;8.948;2024-02-16T03:05:45;8.20;99.90
20380;DHT22;10349;48.666;8.948;2024-02-16T03:08:11;8.20;99.90
20380;DHT22;10349;48.666;8.948;2024-02-16T03:10:37;8.20;99.90
20380;DHT22;10349;48.666;8.948;2024-02-16T03:13:03;8.20;99.90
20380;DHT22;10349;48.666;8.948;2024-02-16T03:15:29;8.20;99.90
20380;DHT22;10349;48.666;8.948;2024-02-16T03:17:55;8.20;99.90
20380;DHT22;10349;48.666;8.948;2024-02-16T03:20:22;8.10;99.90
20380;DHT22;10349;48.666;8.948;2024-02-16T03:22:48;8.20;99.90
20380;DHT22;10349;48.666;8.948;2024-02-16T03:25:14;8.10;99.90
20380;DHT22;10349;48.666;8.948;2024-02-16T03:27:40;8.10;99.90
20380;DHT22;10349;48.666;8.948;2024-02-16T03:30:08;8.20;99.90
20380;DHT22;10349;48.666;8.948;2024-02-16T03:32:34;8.20;99.90
20380;DHT22;10349;48.666;8.948;2024-02-16T03:35:00;8.20;99.90
20380;DHT22;10349;48.666;8.948;2024-02-16T03:37:26;8.20;99.90
20380;DHT22;10349;48.666;8.948;2024-02-16T03:39:51;8.20;99.90
20380;DHT22;10349;48.666;8.948;2024-02-16T03:42:19;8.20;99.90
20380;DHT22;10349;48.666;8.948;2024-02-16T03:44:45;8.20;99.90
20380;DHT22;10349;48.666;8.948;2024-02-16T03:47:11;8.20;99.90
20380;DHT22;10349;48.666;8.948;2024-02-16T03:49:37;8.20;99.90
20380;DHT22;10349;48.666;8.948;2024-02-16T03:52:04;8.10;99.90
20380;DHT22;10349;48.666;8.948;2024-02-16T03:54:30;8.10;99.90
20380;DHT22;10349;48.666;8.948;2024-02-16T03:56:56;8.10;99.90
20380;DHT22;10349;48.666;8.948;2024-02-16T03:59:23;8.10;99.90
20380;DHT22;10349;48.666;8.948;2024-02-16T04:01:49;8.10;99.90
20380;DHT22;10349;48.666;8.948;2024-02-16T04:04:15;8.10;99.90
20380;DHT22;10349;48.666;8.948;2024-02-16T04:06:41;8.10;99.90
20380;DHT22;10349;48.666;8.948;2024-02-16T04:09:06;8.10;99.90
20380;DHT22;10349;48.666;8.948;2024-02-16T04:11:32;8.10;99.90
20380;DHT22;10349;48.666;8.948;2024-02-16T04:13:58;8.00;99.90
20380;DHT22;10349;48.666;8.948;2024-02-16T04:16:24;8.00;99.90
20380;DHT22;10349;48.666;8.948;2024-02-16T04:18:51;8.00;99.90
20380;DHT22;10349;48.666;8.948;2024-02-16T04:21:16;7.90;99.90
20380;DHT22;10349;48.666;8.948;2024-02-16T04:23:42;7.90;99.90
20380;DHT22;10349;48.666;8.948;2024-02-16T04:26:08;7.90;99.90
20380;DHT22;10349;48.666;8.948;2024-02-16T04:28:34;7.90;99.90
20380;DHT22;10349;48.666;8.948;2024-02-16T04:31:00;7.80;99.90
20380;DHT22;10349;48.666;8.948;2024-02-16T04:33:26;7.80;99.90
20380;DHT22;10349;48.666;8.948;2024-02-16T04:35:52;7.80;99.90
20380;DHT22;10349;48.666;8.948;2024-02-16T04:38:17;7.80;99.90
20380;DHT22;10349;48.666;8.948;2024-02-16T04:40:43;7.80;99.90
20380;DHT22;10349;48.666;8.948;2024-02-16T04:43:09;7.80;99.90
20380;DHT22;10349;48.666;8.948;2024-02-16T04:45:35;7.90;99.90
20380;DHT22;10349;48.666;8.948;2024-02-16T04:48:07;7.80;99.90
20380;DHT22;10349;48.666;8.948;2024-02-16T04:50:34;7.80;99.90
20380;DHT22;10349;48.666;8.948;2024-02-16T04:53:00;7.80;99.90
20380;DHT22;10349;48.666;8.948;2024-02-16T04:55:29;7.80;99.90
20380;DHT22;10349;48.666;8.948;2024-02-16T04:57:55;7.90;99.90
20380;DHT22;10349;48.666;8.948;2024-02-16T05:00:22;8.00;99.90
20380;DHT22;10349;48.666;8.948;2024-02-16T05:02:48;8.00;99.90
20380;DHT22;10349;48.666;8.948;2024-02-16T05:05:13;8.00;99.90
20380;DHT22;10349;48.666;8.948;2024-02-16T05:07:42;8.10;99.90
20380;DHT22;10349;48.666;8.948;2024-02-16T05:10:09;8.10;99.90
20380;DHT22;10349;48.666;8.948;2024-02-16T05:12:34;8.10;99.90
20380;DHT22;10349;48.666;8.948;2024-02-16T05:15:00;8.10;99.90
20380;DHT22;10349;48.666;8.948;2024-02-16T05:17:26;8.20;99.90
20380;DHT22;10349;48.666;8.948;2024-02-16T05:19:52;8.20;99.90
20380;DHT22;10349;48.666;8.948;2024-02-16T05:22:19;8.20;99.90
20380;DHT22;10349;48.666;8.948;2024-02-16T05:24:47;8.20;99.90
20380;DHT22;10349;48.666;8.948;2024-02-16T05:27:12;8.20;99.90
20380;DHT22;10349;48.666;8.948;2024-02-16T05:29:39;8.20;99.90
20380;DHT22;10349;48.666;8.948;2024-02-16T05:32:05;8.20;99.90
20380;DHT22;10349;48.666;8.948;2024-02-16T05:34:30;8.20;99.90
20380;DHT22;10349;48.666;8.948;2024-02-16T05:37:04;8.20;99.90
20380;DHT22;10349;48.666;8.948;2024-02-16T05:39:37;8.20;99.90
20380;DHT22;10349;48.666;8.948;2024-02-16T05:42:19;8.10;99.90
20380;DHT22;10349;48.666;8.948;2024-02-16T05:44:46;8.10;99.90
20380;DHT22;10349;48.666;8.948;2024-02-16T05:47:12;8.00;99.90
20380;DHT22;10349;48.666;8.948;2024-02-16T05:49:38;8.10;99.90
20380;DHT22;10349;48.666;8.948;2024-02-16T05:52:05;8.10;99.90
20380;DHT22;10349;48.666;8.948;2024-02-16T05:54:44;8.10;99.90
20380;DHT22;10349;48.666;8.948;2024-02-16T05:57:10;8.00;99.90
20380;DHT22;10349;48.666;8.948;2024-02-16T05:59:35;8.00;99.90
20380;DHT22;10349;48.666;8.948;2024-02-16T06:02:01;8.00;99.90
20380;DHT22;10349;48.666;8.948;2024-02-16T06:04:27;8.00;99.90
20380;DHT22;10349;48.666;8.948;2024-02-16T06:06:52;8.00;99.90
20380;DHT22;10349;48.666;8.948;2024-02-16T06:09:19;8.00;99.90
20380;DHT22;10349;48.666;8.948;2024-02-16T06:11:45;8.00;99.90
20380;DHT22;10349;48.666;8.948;2024-02-16T06:14:10;7.90;99.90
20380;DHT22;10349;48.666;8.948;2024-02-16T06:16:36;7.80;99.90
20380;DHT22;10349;48.666;8.948;2024-02-16T06:19:01;7.80;99.90
20380;DHT22;10349;48.666;8.948;2024-02-16T06:21:27;7.70;99.90
20380;DHT22;10349;48.666;8.948;2024-02-16T06:23:53;7.70;99.90
20380;DHT22;10349;48.666;8.948;2024-02-16T06:26:18;7.70;99.90
20380;DHT22;10349;48.666;8.948;2024-02-16T06:28:45;7.60;99.90
20380;DHT22;10349;48.666;8.948;2024-02-16T06:31:12;7.60;99.90
20380;DHT22;10349;48.666;8.948;2024-02-16T06:33:39;7.50;99.90
20380;DHT22;10349;48.666;8.948;2024-02-16T06:36:05;7.50;99.90
20380;DHT22;10349;48.666;8.948;2024-02-16T06:38:32;7.50;99.90
20380;DHT22;10349;48.666;8.948;2024-02-16T06:40:58;7.50;99.90
20380;DHT22;10349;48.666;8.948;2024-02-16T06:43:23;7.60;99.90
20380;DHT22;10349;48.666;8.948;2024-02-16T06:45:49;7.60;99.90
20380;DHT22;10349;48.666;8.948;2024-02-16T06:48:14;7.60;99.90
20380;DHT22;10349;48.666;8.948;2024-02-16T06:50:40;7.60;99.90
20380;DHT22;10349;48.666;8.948;2024-02-16T06:53:06;7.60;99.90
20380;DHT22;10349;48.666;8.948;2024-02-16T06:55:31;7.60;99.90
20380;DHT22;10349;48.666;8.948;2024-02-16T06:57:57;7.60;99.90
20380;DHT22;10349;48.666;8.948;2024-02-16T07:00:22;7.60;99.90
20380;DHT22;10349;48.666;8.948;2024-02-16T07:02:48;7.60;99.90
20380;DHT22;10349;48.666;8.948;2024-02-16T07:05:14;7.70;99.90
20380;DHT22;10349;48.666;8.948;2024-02-16T07:07:41;7.70;99.90
20380;DHT22;10349;48.666;8.948;2024-02-16T07:10:07;7.70;99.90
20380;DHT22;10349;48.666;8.948;2024-02-16T07:12:35;7.70;99.90
20380;DHT22;10349;48.666;8.948;2024-02-16T07:15:01;7.70;99.90
20380;DHT22;10349;48.666;8.948;2024-02-16T07:17:27;7.70;99.90
20380;DHT22;10349;48.666;8.948;2024-02-16T07:19:53;7.70;99.90
20380;DHT22;10349;48.666;8.948;2024-02-16T07:22:18;7.70;99.90
20380;DHT22;10349;48.666;8.948;2024-02-16T07:24:44;7.70;99.90
20380;DHT22;10349;48.666;8.948;2024-02-16T07:27:09;7.70;99.90
20380;DHT22;10349;48.666;8.948;2024-02-16T07:29:36;7.70;99.90
20380;DHT22;10349;48.666;8.948;2024-02-16T07:32:03;7.80;99.90
20380;DHT22;10349;48.666;8.948;2024-02-16T07:34:29;7.90;99.90
20380;DHT22;10349;48.666;8.948;2024-02-16T07:36:55;8.00;99.90
20380;DHT22;10349;48.666;8.948;2024-02-16T07:39:21;8.10;99.90
20380;DHT22;10349;48.666;8.948;2024-02-16T07:41:49;8.20;99.90
20380;DHT22;10349;48.666;8.948;2024-02-16T07:44:14;8.30;99.90
20380;DHT22;10349;48.666;8.948;2024-02-16T07:46:41;8.30;99.90
20380;DHT22;10349;48.666;8.948;2024-02-16T07:49:07;8.40;99.90
20380;DHT22;10349;48.666;8.948;2024-02-16T07:51:33;8.50;99.90
20380;DHT22;10349;48.666;8.948;2024-02-16T07:53:58;8.60;99.90
20380;DHT22;10349;48.666;8.948;2024-02-16T07:56:24;8.70;99.90
20380;DHT22;10349;48.666;8.948;2024-02-16T07:58:49;8.70;99.90
20380;DHT22;10349;48.666;8.948;2024-02-16T08:01:15;8.80;99.90
20380;DHT22;10349;48.666;8.948;2024-02-16T08:03:41;8.80;99.90
20380;DHT22;10349;48.666;8.948;2024-02-16T08:06:07;9.00;99.90
20380;DHT22;10349;48.666;8.948;2024-02-16T08:08:32;9.00;99.90
20380;DHT22;10349;48.666;8.948;2024-02-16T08:10:58;9.10;99.90
20380;DHT22;10349;48.666;8.948;2024-02-16T08:13:23;9.20;99.90
20380;DHT22;10349;48.666;8.948;2024-02-16T08:15:49;9.30;99.90
20380;DHT22;10349;48.666;8.948;2024-02-16T08:18:17;9.50;99.90
20380;DHT22;10349;48.666;8.948;2024-02-16T08:20:43;9.50;99.90
20380;DHT22;10349;48.666;8.948;2024-02-16T08:23:09;9.50;99.90
20380;DHT22;10349;48.666;8.948;2024-02-16T08:25:34;9.60;99.90
20380;DHT22;10349;48.666;8.948;2024-02-16T08:28:00;9.70;99.90
20380;DHT22;10349;48.666;8.948;2024-02-16T08:30:27;9.80;99.90
20380;DHT22;10349;48.666;8.948;2024-02-16T08:32:53;9.80;99.90
20380;DHT22;10349;48.666;8.948;2024-02-16T08:35:19;9.90;99.90
20380;DHT22;10349;48.666;8.948;2024-02-16T08:37:45;10.00;99.90
20380;DHT22;10349;48.666;8.948;2024-02-16T08:40:12;10.10;99.90
20380;DHT22;10349;48.666;8.948;2024-02-16T08:42:41;10.20;99.90
20380;DHT22;10349;48.666;8.948;2024-02-16T08:45:08;10.20;99.90
20380;DHT22;10349;48.666;8.948;2024-02-16T08:47:33;10.30;99.90
20380;DHT22;10349;48.666;8.948;2024-02-16T08:49:59;10.40;99.90
20380;DHT22;10349;48.666;8.948;2024-02-16T08:52:26;10.40;99.90
20380;DHT22;10349;48.666;8.948;2024-02-16T08:54:51;10.50;99.90
20380;DHT22;10349;48.666;8.948;2024-02-16T08:57:17;10.50;99.90
20380;DHT22;10349;48.666;8.948;2024-02-16T08:59:42;10.60;99.90
20380;DHT22;10349;48.666;8.948;2024-02-16T09:02:09;10.70;99.90
20380;DHT22;10349;48.666;8.948;2024-02-16T09:04:35;10.80;99.90
20380;DHT22;10349;48.666;8.948;2024-02-16T09:07:03;10.90;99.90
20380;DHT22;10349;48.666;8.948;2024-02-16T09:09:29;11.00;99.90
20380;DHT22;10349;48.666;8.948;2024-02-16T09:11:54;11.10;99.90
20380;DHT22;10349;48.666;8.948;2024-02-16T09:14:20;11.20;99.90
20380;DHT22;10349;48.666;8.948;2024-02-16T09:16:49;11.30;99.90
20380;DHT22;10349;48.666;8.948;2024-02-16T09:19:17;11.40;99.90
20380;DHT22;10349;48.666;8.948;2024-02-16T09:21:42;11.50;99.90
20380;DHT22;10349;48.666;8.948;2024-02-16T09:24:08;11.60;99.90
20380;DHT22;10349;48.666;8.948;2024-02-16T09:26:36;11.70;99.90
20380;DHT22;10349;48.666;8.948;2024-02-16T09:29:02;11.80;99.90
20380;DHT22;10349;48.666;8.948;2024-02-16T09:31:28;11.90;99.90
20380;DHT22;10349;48.666;8.948;2024-02-16T09:33:53;12.00;99.90
20380;DHT22;10349;48.666;8.948;2024-02-16T09:36:19;12.00;99.90
20380;DHT22;10349;48.666;8.948;2024-02-16T09:38:45;12.10;99.90
20380;DHT22;10349;48.666;8.948;2024-02-16T09:41:10;12.20;99.90
20380;DHT22;10349;48.666;8.948;2024-02-16T09:43:37;12.20;99.90
20380;DHT22;10349;48.666;8.948;2024-02-16T09:46:05;12.30;99.90
20380;DHT22;10349;48.666;8.948;2024-02-16T09:48:31;12.30;99.90
20380;DHT22;10349;48.666;8.948;2024-02-16T09:50:57;12.30;99.90
20380;DHT22;10349;48.666;8.948;2024-02-16T09:53:28;12.40;99.90
20380;DHT22;10349;48.666;8.948;2024-02-16T09:55:54;12.50;99.90
20380;DHT22;10349;48.666;8.948;2024-02-16T09:58:20;12.50;99.90
20380;DHT22;10349;48.666;8.948;2024-02-16T10:00:53;12.60;99.90
20380;DHT22;10349;48.666;8.948;2024-02-16T10:03:27;12.60;99.90
20380;DHT22;10349;48.666;8.948;2024-02-16T10:06:07;12.70;99.90
20380;DHT22;10349;48.666;8.948;2024-02-16T10:08:34;12.80;99.90
20380;DHT22;10349;48.666;8.948;2024-02-16T10:11:02;12.90;99.90
20380;DHT22;10349;48.666;8.948;2024-02-16T10:13:28;12.90;99.90
20380;DHT22;10349;48.666;8.948;2024-02-16T10:16:04;13.00;99.90
20380;DHT22;10349;48.666;8.948;2024-02-16T10:18:30;13.00;99.90
20380;DHT22;10349;48.666;8.948;2024-02-16T10:20:55;13.10;99.90
20380;DHT22;10349;48.666;8.948;2024-02-16T10:23:21;13.10;99.90
20380;DHT22;10349;48.666;8.948;2024-02-16T10:25:47;13.10;99.90
20380;DHT22;10349;48.666;8.948;2024-02-16T10:28:12;13.20;99.90
20380;DHT22;10349;48.666;8.948;2024-02-16T10:30:40;13.20;99.90
20380;DHT22;10349;48.666;8.948;2024-02-16T10:33:08;13.30;99.90
20380;DHT22;10349;48.666;8.948;2024-02-16T10:35:35;13.30;99.90
20380;DHT22;10349;48.666;8.948;2024-02-16T10:38:02;13.30;99.90
20380;DHT22;10349;48.666;8.948;2024-02-16T10:40:38;13.40;99.90
20380;DHT22;10349;48.666;8.948;2024-02-16T10:43:04;13.40;99.90
20380;DHT22;10349;48.666;8.948;2024-02-16T10:45:37;13.40;99.90
20380;DHT22;10349;48.666;8.948;2024-02-16T10:48:04;13.50;99.90
20380;DHT22;10349;48.666;8.948;2024-02-16T10:50:32;13.50;99.90
20380;DHT22;10349;48.666;8.948;2024-02-16T10:53:03;13.50;99.90
20380;DHT22;10349;48.666;8.948;2024-02-16T10:55:30;13.60;99.90
20380;DHT22;10349;48.666;8.948;2024-02-16T10:57:57;13.60;99.90
20380;DHT22;10349;48.666;8.948;2024-02-16T11:00:24;13.60;99.90
20380;DHT22;10349;48.666;8.948;2024-02-16T11:02:54;13.60;99.90
20380;DHT22;10349;48.666;8.948;2024-02-16T11:05:40;13.60;99.90
20380;DHT22;10349;48.666;8.948;2024-02-16T11:08:17;13.70;99.90
20380;DHT22;10349;48.666;8.948;2024-02-16T11:10:59;13.80;99.90
20380;DHT22;10349;48.666;8.948;2024-02-16T11:13:27;13.80;99.90
20380;DHT22;10349;48.666;8.948;2024-02-16T11:16:06;13.80;99.90
20380;DHT22;10349;48.666;8.948;2024-02-16T11:18:36;13.90;99.90
20380;DHT22;10349;48.666;8.948;2024-02-16T11:21:03;14.00;99.90
20380;DHT22;10349;48.666;8.948;2024-02-16T11:23:34;14.00;99.90
20380;DHT22;10349;48.666;8.948;2024-02-16T11:26:04;14.20;99.90
20380;DHT22;10349;48.666;8.948;2024-02-16T11:28:32;14.20;99.90
20380;DHT22;10349;48.666;8.948;2024-02-16T11:30:58;14.30;99.90
20380;DHT22;10349;48.666;8.948;2024-02-16T11:33:24;14.40;99.90
20380;DHT22;10349;48.666;8.948;2024-02-16T11:36:00;14.60;99.90
20380;DHT22;10349;48.666;8.948;2024-02-16T11:38:26;14.80;99.90
20380;DHT22;10349;48.666;8.948;2024-02-16T11:43:26;15.20;99.90
20380;DHT22;10349;48.666;8.948;2024-02-16T11:45:53;15.30;99.90
20380;DHT22;10349;48.666;8.948;2024-02-16T11:48:23;15.50;99.90
20380;DHT22;10349;48.666;8.948;2024-02-16T11:50:49;15.50;99.90
20380;DHT22;10349;48.666;8.948;2024-02-16T11:53:19;15.60;99.90
20380;DHT22;10349;48.666;8.948;2024-02-16T11:55:49;15.60;99.90
20380;DHT22;10349;48.666;8.948;2024-02-16T11:58:20;15.70;99.90
20380;DHT22;10349;48.666;8.948;2024-02-16T12:00:47;15.70;99.90
20380;DHT22;10349;48.666;8.948;2024-02-16T12:03:23;15.80;99.90
20380;DHT22;10349;48.666;8.948;2024-02-16T12:05:56;15.90;99.90
20380;DHT22;10349;48.666;8.948;2024-02-16T12:08:22;16.00;99.90
20380;DHT22;10349;48.666;8.948;2024-02-16T12:10:50;16.00;99.90
20380;DHT22;10349;48.666;8.948;2024-02-16T12:13:19;16.10;99.90
20380;DHT22;10349;48.666;8.948;2024-02-16T12:15:46;16.20;99.90
20380;DHT22;10349;48.666;8.948;2024-02-16T12:18:22;16.30;99.90
20380;DHT22;10349;48.666;8.948;2024-02-16T12:21:02;16.30;99.90
20380;DHT22;10349;48.666;8.948;2024-02-16T12:23:29;16.40;99.90
20380;DHT22;10349;48.666;8.948;2024-02-16T12:25:56;16.40;99.90
20380;DHT22;10349;48.666;8.948;2024-02-16T12:28:30;16.40;99.90
20380;DHT22;10349;48.666;8.948;2024-02-16T12:30:59;16.50;99.90
20380;DHT22;10349;48.666;8.948;2024-02-16T12:33:26;16.50;99.90
20380;DHT22;10349;48.666;8.948;2024-02-16T12:35:52;16.60;99.90
20380;DHT22;10349;48.666;8.948;2024-02-16T12:38:18;16.60;99.90
20380;DHT22;10349;48.666;8.948;2024-02-16T12:40:48;16.60;99.90
20380;DHT22;10349;48.666;8.948;2024-02-16T12:43:14;16.60;99.90
20380;DHT22;10349;48.666;8.948;2024-02-16T12:45:40;16.60;99.90
20380;DHT22;10349;48.666;8.948;2024-02-16T12:48:07;16.50;99.90
20380;DHT22;10349;48.666;8.948;2024-02-16T12:50:33;16.30;99.90
20380;DHT22;10349;48.666;8.948;2024-02-16T12:52:59;16.30;99.90
20380;DHT22;10349;48.666;8.948;2024-02-16T12:55:25;16.30;99.90
20380;DHT22;10349;48.666;8.948;2024-02-16T12:57:51;16.20;99.90
20380;DHT22;10349;48.666;8.948;2024-02-16T13:00:17;16.20;99.90
20380;DHT22;10349;48.666;8.948;2024-02-16T13:02:43;16.10;99.90
20380;DHT22;10349;48.666;8.948;2024-02-16T13:05:09;16.10;99.90
20380;DHT22;10349;48.666;8.948;2024-02-16T13:07:39;16.10;99.90
20380;DHT22;10349;48.666;8.948;2024-02-16T13:10:07;16.10;99.90
20380;DHT22;10349;48.666;8.948;2024-02-16T13:12:33;16.20;99.90
20380;DHT22;10349;48.666;8.948;2024-02-16T13:14:59;16.20;99.90
20380;DHT22;10349;48.666;8.948;2024-02-16T13:17:25;16.30;99.90
20380;DHT22;10349;48.666;8.948;2024-02-16T13:19:52;16.20;99.90
20380;DHT22;10349;48.666;8.948;2024-02-16T13:22:18;16.20;99.90
20380;DHT22;10349;48.666;8.948;2024-02-16T13:24:44;16.20;99.90
20380;DHT22;10349;48.666;8.948;2024-02-16T13:27:10;16.20;99.90
20380;DHT22;10349;48.666;8.948;2024-02-16T13:29:35;16.10;99.90
20380;DHT22;10349;48.666;8.948;2024-02-16T13:32:01;16.10;99.90
20380;DHT22;10349;48.666;8.948;2024-02-16T13:34:29;16.10;99.90
20380;DHT22;10349;48.666;8.948;2024-02-16T13:36:55;16.10;99.90
20380;DHT22;10349;48.666;8.948;2024-02-16T13:39:21;16.10;99.90
20380;DHT22;10349;48.666;8.948;2024-02-16T13:41:49;16.20;99.90
20380;DHT22;10349;48.666;8.948;2024-02-16T13:44:17;16.10;99.90
20380;DHT22;10349;48.666;8.948;2024-02-16T13:46:45;16.10;99.90
20380;DHT22;10349;48.666;8.948;2024-02-16T13:49:12;16.10;99.90
20380;DHT22;10349;48.666;8.948;2024-02-16T13:51:40;16.10;99.90
20380;DHT22;10349;48.666;8.948;2024-02-16T13:54:06;16.10;99.90
20380;DHT22;10349;48.666;8.948;2024-02-16T13:56:31;16.10;99.90
20380;DHT22;10349;48.666;8.948;2024-02-16T13:58:57;16.00;99.90
20380;DHT22;10349;48.666;8.948;2024-02-16T14:01:22;16.00;99.90
20380;DHT22;10349;48.666;8.948;2024-02-16T14:03:50;16.00;99.90
20380;DHT22;10349;48.666;8.948;2024-02-16T14:06:16;16.10;99.90
20380;DHT22;10349;48.666;8.948;2024-02-16T14:08:42;16.00;99.90
20380;DHT22;10349;48.666;8.948;2024-02-16T14:11:07;16.10;99.90
20380;DHT22;10349;48.666;8.948;2024-02-16T14:13:34;16.10;99.90
20380;DHT22;10349;48.666;8.948;2024-02-16T14:16:00;16.10;99.90
20380;DHT22;10349;48.666;8.948;2024-02-16T14:18:26;16.10;99.90
20380;DHT22;10349;48.666;8.948;2024-02-16T14:20:51;16.10;99.90
20380;DHT22;10349;48.666;8.948;2024-02-16T14:23:17;16.00;99.90
20380;DHT22;10349;48.666;8.948;2024-02-16T14:25:43;16.00;99.90
20380;DHT22;10349;48.666;8.948;2024-02-16T14:28:08;15.90;99.90
20380;DHT22;10349;48.666;8.948;2024-02-16T14:30:34;16.00;99.90
20380;DHT22;10349;48.666;8.948;2024-02-16T14:33:00;16.00;99.90
20380;DHT22;10349;48.666;8.948;2024-02-16T14:35:26;16.00;99.90
20380;DHT22;10349;48.666;8.948;2024-02-16T14:37:51;15.90;99.90
20380;DHT22;10349;48.666;8.948;2024-02-16T14:40:17;15.90;99.90
20380;DHT22;10349;48.666;8.948;2024-02-16T14:42:43;15.90;99.90
20380;DHT22;10349;48.666;8.948;2024-02-16T14:45:09;16.00;99.90
20380;DHT22;10349;48.666;8.948;2024-02-16T14:47:47;15.90;99.90
20380;DHT22;10349;48.666;8.948;2024-02-16T14:50:13;16.00;99.90
20380;DHT22;10349;48.666;8.948;2024-02-16T14:52:39;15.90;99.90
20380;DHT22;10349;48.666;8.948;2024-02-16T14:55:06;15.90;99.90
20380;DHT22;10349;48.666;8.948;2024-02-16T14:57:41;15.90;99.90
20380;DHT22;10349;48.666;8.948;2024-02-16T15:00:08;15.90;99.90
20380;DHT22;10349;48.666;8.948;2024-02-16T15:02:34;15.80;99.90
20380;DHT22;10349;48.666;8.948;2024-02-16T15:04:59;15.90;99.90
20380;DHT22;10349;48.666;8.948;2024-02-16T15:07:25;15.90;99.90
20380;DHT22;10349;48.666;8.948;2024-02-16T15:09:51;15.80;99.90
20380;DHT22;10349;48.666;8.948;2024-02-16T15:12:16;15.80;99.90
20380;DHT22;10349;48.666;8.948;2024-02-16T15:14:47;15.80;99.90
20380;DHT22;10349;48.666;8.948;2024-02-16T15:17:14;15.70;99.90
20380;DHT22;10349;48.666;8.948;2024-02-16T15:19:40;15.70;99.90
20380;DHT22;10349;48.666;8.948;2024-02-16T15:22:06;15.60;99.90
20380;DHT22;10349;48.666;8.948;2024-02-16T15:24:32;15.50;99.90
20380;DHT22;10349;48.666;8.948;2024-02-16T15:26:57;15.40;99.90
20380;DHT22;10349;48.666;8.948;2024-02-16T15:29:23;15.30;99.90
20380;DHT22;10349;48.666;8.948;2024-02-16T15:31:49;15.30;99.90
20380;DHT22;10349;48.666;8.948;2024-02-16T15:34:14;15.10;99.90
20380;DHT22;10349;48.666;8.948;2024-02-16T15:36:41;15.10;99.90
20380;DHT22;10349;48.666;8.948;2024-02-16T15:39:07;14.90;99.90